Time;durP1;ratioP1;P1;durP2;ratioP2;P2;SDS_P1;SDS_P2;PMS_P1;PMS_P2;Temp;Humidity;BMP_temperature;BMP_pressure;BME280_temperature;BME280_humidity;BME280_pressure;Samples;Min_cycle;Max_cycle;Signal;HPM_P1;HPM_P2
2021/09/05 00:01:47;;;;;;;;;25.75;24.50;;;;;-147.91;100.00;58652.34;5084063;27;46039;-81
2021/09/05 00:04:13;;;;;;;;;26.50;25.00;;;;;-147.91;100.00;58652.34;5086207;27;46214;-81
2021/09/05 00:06:38;;;;;;;;;27.00;24.50;;;;;-147.91;100.00;58652.34;5084027;27;45635;-81
2021/09/05 00:09:04;;;;;;;;;26.25;25.00;;;;;-147.91;100.00;58652.34;5088564;27;45623;-80
2021/09/05 00:11:29;;;;;;;;;27.50;25.00;;;;;-147.91;100.00;58652.34;5083801;27;46328;-80
2021/09/05 00:13:54;;;;;;;;;29.75;26.25;;;;;-147.91;100.00;58652.34;5080443;27;46033;-80
2021/09/05 00:16:20;;;;;;;;;25.25;23.50;;;;;-147.91;100.00;58652.34;5083511;27;46331;-80
2021/09/05 00:18:46;;;;;;;;;23.00;20.25;;;;;-147.91;100.00;58652.34;5079685;27;45937;-79
2021/09/05 00:21:11;;;;;;;;;26.50;22.50;;;;;-147.91;100.00;58652.34;5079170;27;45549;-79
2021/09/05 00:23:37;;;;;;;;;26.00;23.50;;;;;-147.91;100.00;58652.34;5082249;27;45663;-79
2021/09/05 00:26:02;;;;;;;;;26.75;25.00;;;;;-147.91;100.00;58652.34;5078422;27;46775;-79
2021/09/05 00:28:27;;;;;;;;;28.00;24.00;;;;;-147.91;100.00;58652.34;5086333;27;45571;-79
2021/09/05 00:30:53;;;;;;;;;24.25;23.25;;;;;-147.91;100.00;58652.34;5084732;27;46268;-79
2021/09/05 00:33:18;;;;;;;;;29.50;27.75;;;;;-147.91;100.00;58652.34;5085218;27;45660;-79
2021/09/05 00:35:44;;;;;;;;;29.75;24.25;;;;;-147.91;100.00;58652.34;5087755;27;45589;-79
2021/09/05 00:38:09;;;;;;;;;25.00;23.50;;;;;-147.91;100.00;58652.34;5064409;27;45829;-80
2021/09/05 00:40:34;;;;;;;;;31.50;25.00;;;;;-147.91;100.00;58652.34;5087568;27;45911;-79
2021/09/05 00:43:00;;;;;;;;;24.50;24.25;;;;;-147.91;100.00;58652.34;5084714;27;46080;-79
2021/09/05 00:45:25;;;;;;;;;25.50;20.75;;;;;-147.91;100.00;58652.34;5084595;27;47060;-79
2021/09/05 00:47:51;;;;;;;;;25.50;23.00;;;;;-147.91;100.00;58652.34;5087764;27;45721;-80
2021/09/05 00:50:16;;;;;;;;;30.00;26.50;;;;;-147.91;100.00;58652.34;5080996;27;46416;-79
2021/09/05 00:52:42;;;;;;;;;23.75;20.75;;;;;-147.91;100.00;58652.34;5085317;27;45739;-79
2021/09/05 00:55:08;;;;;;;;;32.75;28.00;;;;;-147.91;100.00;58652.34;5087307;27;45546;-79
2021/09/05 00:57:34;;;;;;;;;27.75;25.25;;;;;-147.91;100.00;58652.34;5080152;27;45610;-79
2021/09/05 00:59:59;;;;;;;;;24.00;22.50;;;;;-147.91;100.00;58652.34;5085668;27;45589;-79
2021/09/05 01:02:25;;;;;;;;;26.00;22.25;;;;;-147.91;100.00;58652.34;5082043;27;45632;-79
2021/09/05 01:04:50;;;;;;;;;30.25;25.50;;;;;-147.91;100.00;58652.34;5064155;27;59152;-79
2021/09/05 01:07:16;;;;;;;;;25.75;23.00;;;;;-147.91;100.00;58652.34;5087726;27;47692;-79
2021/09/05 01:09:41;;;;;;;;;27.25;25.25;;;;;-147.91;100.00;58652.34;5082509;27;45605;-79
2021/09/05 01:12:07;;;;;;;;;23.25;21.75;;;;;-147.91;100.00;58652.34;5063341;27;45563;-79
2021/09/05 01:14:33;;;;;;;;;22.75;22.50;;;;;-147.91;100.00;58652.34;5085148;27;46567;-79
2021/09/05 01:16:58;;;;;;;;;20.50;19.25;;;;;-147.91;100.00;58652.34;5084555;27;45559;-80
2021/09/05 01:19:24;;;;;;;;;21.75;19.75;;;;;-147.91;100.00;58652.34;5087279;27;45558;-80
2021/09/05 01:21:51;;;;;;;;;27.25;24.75;;;;;-147.91;100.00;58652.34;5083671;27;45609;-80
2021/09/05 01:24:19;;;;;;;;;29.25;23.50;;;;;-147.91;100.00;58652.34;5084258;27;45550;-80
2021/09/05 01:26:48;;;;;;;;;26.00;23.50;;;;;-147.91;100.00;58652.34;5086825;27;45675;-80
2021/09/05 01:29:14;;;;;;;;;22.50;19.00;;;;;-147.91;100.00;58652.34;5082220;27;46912;-80
2021/09/05 01:31:43;;;;;;;;;23.50;22.00;;;;;-147.91;100.00;58652.34;5085537;27;46209;-80
2021/09/05 01:34:10;;;;;;;;;28.25;23.00;;;;;-147.91;100.00;58652.34;5087078;27;45605;-80
2021/09/05 01:36:37;;;;;;;;;24.25;21.00;;;;;-147.91;100.00;58652.34;5064226;27;47689;-80
2021/09/05 01:39:04;;;;;;;;;26.50;22.75;;;;;-147.91;100.00;58652.34;5088865;27;46270;-80
2021/09/05 01:41:30;;;;;;;;;22.25;21.25;;;;;-147.91;100.00;58652.34;5083279;27;45628;-81
2021/09/05 01:44:00;;;;;;;;;23.50;20.00;;;;;-147.91;100.00;58652.34;5085044;27;45474;-80
2021/09/05 01:46:26;;;;;;;;;22.75;20.75;;;;;-147.91;100.00;58652.34;5087851;27;45503;-80
2021/09/05 01:48:55;;;;;;;;;23.75;20.00;;;;;-147.91;100.00;58652.34;5080163;27;46344;-80
2021/09/05 01:51:20;;;;;;;;;25.75;21.50;;;;;-147.91;100.00;58652.34;5082512;27;45520;-81
2021/09/05 01:53:46;;;;;;;;;28.75;23.25;;;;;-147.91;100.00;58652.34;5080360;27;45745;-80
2021/09/05 01:56:11;;;;;;;;;23.50;20.25;;;;;-147.91;100.00;58652.34;5081162;27;46057;-80
2021/09/05 01:58:36;;;;;;;;;22.00;19.50;;;;;-147.91;100.00;58652.34;5088541;27;46243;-82
2021/09/05 02:01:02;;;;;;;;;21.75;17.75;;;;;-147.91;100.00;58652.34;5081909;27;65130;-82
2021/09/05 02:03:27;;;;;;;;;18.75;18.50;;;;;-147.91;100.00;58652.34;5081745;27;45710;-82
2021/09/05 02:05:53;;;;;;;;;20.75;19.50;;;;;-147.91;100.00;58652.34;5087651;27;46038;-82
2021/09/05 02:08:18;;;;;;;;;25.00;19.50;;;;;-147.91;100.00;58652.34;5064020;27;48553;-81
2021/09/05 02:10:43;;;;;;;;;24.00;20.25;;;;;-147.91;100.00;58652.34;5082876;27;45890;-82
2021/09/05 02:13:09;;;;;;;;;22.50;19.75;;;;;-147.91;100.00;58652.34;5051431;27;45587;-82
2021/09/05 02:15:34;;;;;;;;;24.75;19.75;;;;;-147.91;100.00;58652.34;5082968;27;45825;-82
2021/09/05 02:18:00;;;;;;;;;23.75;22.00;;;;;-147.91;100.00;58652.34;5087566;27;45767;-81
2021/09/05 02:20:25;;;;;;;;;21.25;19.50;;;;;-147.91;100.00;58652.34;5082785;27;46096;-80
2021/09/05 02:22:50;;;;;;;;;18.50;18.25;;;;;-147.91;100.00;58652.34;5082955;27;45658;-81
2021/09/05 02:25:16;;;;;;;;;22.50;20.75;;;;;-147.91;100.00;58652.34;5087488;27;45436;-81
2021/09/05 02:27:42;;;;;;;;;21.00;18.50;;;;;-147.91;100.00;58652.34;5078139;27;52642;-81
2021/09/05 02:30:10;;;;;;;;;21.75;20.50;;;;;-147.91;100.00;58652.34;5086092;27;45509;-81
2021/09/05 02:32:35;;;;;;;;;20.75;17.75;;;;;-147.91;100.00;58652.34;5083441;27;45909;-80
2021/09/05 02:35:01;;;;;;;;;22.50;17.50;;;;;-147.91;100.00;58652.34;5083117;27;45547;-80
2021/09/05 02:37:27;;;;;;;;;21.25;20.00;;;;;-147.91;100.00;58652.34;5086526;27;46570;-81
2021/09/05 02:39:52;;;;;;;;;22.25;19.00;;;;;-147.91;100.00;58652.34;5082957;27;45576;-81
2021/09/05 02:42:17;;;;;;;;;21.00;19.25;;;;;-147.91;100.00;58652.34;5082223;27;45673;-81
2021/09/05 02:44:43;;;;;;;;;19.00;19.00;;;;;-147.91;100.00;58652.34;5086609;27;45596;-81
2021/09/05 02:47:08;;;;;;;;;21.50;18.75;;;;;-147.91;100.00;58652.34;5082631;27;46108;-81
2021/09/05 02:49:33;;;;;;;;;23.25;19.00;;;;;-147.91;100.00;58652.34;5084944;27;45799;-81
2021/09/05 02:51:59;;;;;;;;;21.75;20.50;;;;;-147.91;100.00;58652.34;5084096;27;46415;-81
2021/09/05 02:54:24;;;;;;;;;20.50;20.50;;;;;-147.91;100.00;58652.34;5082066;27;45862;-81
2021/09/05 02:56:49;;;;;;;;;20.50;18.50;;;;;-147.91;100.00;58652.34;5085630;27;46387;-81
2021/09/05 02:59:16;;;;;;;;;22.00;20.50;;;;;-147.91;100.00;58652.34;5083174;27;45661;-81
2021/09/05 03:01:41;;;;;;;;;21.25;19.50;;;;;-147.91;100.00;58652.34;5079025;27;45996;-80
2021/09/05 03:04:07;;;;;;;;;21.75;19.00;;;;;-147.91;100.00;58652.34;5085385;27;45770;-81
2021/09/05 03:06:32;;;;;;;;;24.00;21.75;;;;;-147.91;100.00;58652.34;5081557;27;45990;-81
2021/09/05 03:08:57;;;;;;;;;21.75;19.25;;;;;-147.91;100.00;58652.34;5085215;27;45514;-81
2021/09/05 03:11:23;;;;;;;;;20.75;20.00;;;;;-147.91;100.00;58652.34;5080664;27;45469;-81
2021/09/05 03:13:48;;;;;;;;;24.25;20.50;;;;;-147.91;100.00;58652.34;5083810;27;45987;-81
2021/09/05 03:16:14;;;;;;;;;18.25;17.75;;;;;-147.91;100.00;58652.34;5090182;27;45597;-80
2021/09/05 03:18:39;;;;;;;;;25.50;20.75;;;;;-147.91;100.00;58652.34;5083200;27;45574;-81
2021/09/05 03:21:08;;;;;;;;;19.00;19.00;;;;;-147.91;100.00;58652.34;5089717;27;47107;-81
2021/09/05 03:23:36;;;;;;;;;24.25;21.25;;;;;-147.91;100.00;58652.34;5083581;27;46458;-81
2021/09/05 03:26:01;;;;;;;;;23.00;22.00;;;;;-147.91;100.00;58652.34;5085025;27;46385;-81
2021/09/05 03:28:27;;;;;;;;;22.00;20.75;;;;;-147.91;100.00;58652.34;5087695;27;60565;-81
2021/09/05 03:30:52;;;;;;;;;22.00;19.00;;;;;-147.91;100.00;58652.34;5051821;27;48175;-80
2021/09/05 03:33:18;;;;;;;;;21.25;19.00;;;;;-147.91;100.00;58652.34;5085929;27;45414;-81
2021/09/05 03:35:43;;;;;;;;;19.50;18.50;;;;;-147.91;100.00;58652.34;5088563;27;46287;-81
2021/09/05 03:38:08;;;;;;;;;25.50;21.50;;;;;-147.91;100.00;58652.34;5084657;27;45632;-80
2021/09/05 03:40:34;;;;;;;;;22.50;21.75;;;;;-147.91;100.00;58652.34;5069185;27;46108;-81
2021/09/05 03:43:00;;;;;;;;;24.50;19.50;;;;;-147.91;100.00;58652.34;5086321;27;45561;-80
2021/09/05 03:45:25;;;;;;;;;22.00;19.00;;;;;-147.91;100.00;58652.34;5085512;27;46179;-81
2021/09/05 03:47:50;;;;;;;;;23.75;19.75;;;;;-147.91;100.00;58652.34;5089752;27;45470;-80
2021/09/05 03:50:16;;;;;;;;;22.50;19.50;;;;;-147.91;100.00;58652.34;5080263;27;45730;-80
2021/09/05 03:52:42;;;;;;;;;20.00;19.00;;;;;-147.91;100.00;58652.34;5086898;27;45489;-80
2021/09/05 03:55:08;;;;;;;;;25.00;19.50;;;;;-147.91;100.00;58652.34;5067204;27;47906;-81
2021/09/05 03:57:34;;;;;;;;;18.25;18.25;;;;;-147.91;100.00;58652.34;5082882;27;45613;-80
2021/09/05 03:59:59;;;;;;;;;20.00;18.50;;;;;-147.91;100.00;58652.34;5089615;27;45507;-80
2021/09/05 04:02:24;;;;;;;;;17.25;17.25;;;;;-147.91;100.00;58652.34;5083379;27;45823;-81
2021/09/05 04:04:50;;;;;;;;;17.50;17.50;;;;;-147.91;100.00;58652.34;5083663;27;46182;-81
2021/09/05 04:07:18;;;;;;;;;23.00;17.75;;;;;-147.91;100.00;58652.34;5088654;27;46401;-80
2021/09/05 04:12:28;;;;;;;;;19.25;17.50;;;;;-147.91;100.00;58652.34;5084702;27;45559;-81
2021/09/05 04:14:53;;;;;;;;;21.25;18.00;;;;;-147.91;100.00;58652.34;5087292;27;46176;-80
2021/09/05 04:17:18;;;;;;;;;23.50;18.25;;;;;-147.91;100.00;58652.34;5066169;27;45914;-82
2021/09/05 04:19:44;;;;;;;;;17.25;17.00;;;;;-147.91;100.00;58652.34;5084315;27;45975;-82
2021/09/05 04:22:09;;;;;;;;;17.75;16.75;;;;;-147.91;100.00;58652.34;5086807;27;45513;-82
2021/09/05 04:24:35;;;;;;;;;19.00;17.00;;;;;-147.91;100.00;58652.34;5082667;27;46207;-82
2021/09/05 04:27:01;;;;;;;;;17.50;16.00;;;;;-147.91;100.00;58652.34;5071211;27;45433;-82
2021/09/05 04:29:26;;;;;;;;;22.00;18.75;;;;;-147.91;100.00;58652.34;5076045;27;45569;-81
2021/09/05 04:31:52;;;;;;;;;19.00;18.00;;;;;-147.91;100.00;58652.34;5083102;27;49347;-81
2021/09/05 04:34:17;;;;;;;;;18.75;18.00;;;;;-147.91;100.00;58652.34;5086074;27;46108;-82
2021/09/05 04:36:42;;;;;;;;;19.75;19.00;;;;;-147.91;100.00;58652.34;5084385;27;45514;-82
2021/09/05 04:39:08;;;;;;;;;21.00;19.50;;;;;-147.91;100.00;58652.34;5087002;27;45528;-82
2021/09/05 04:41:33;;;;;;;;;20.75;18.75;;;;;-147.91;100.00;58652.34;5083642;27;46392;-82
2021/09/05 04:43:59;;;;;;;;;17.75;17.25;;;;;-147.91;100.00;58652.34;5083942;27;45452;-82
2021/09/05 04:46:24;;;;;;;;;14.25;14.25;;;;;-147.91;100.00;58652.34;5088379;27;45462;-82
2021/09/05 04:48:49;;;;;;;;;19.25;15.50;;;;;-147.91;100.00;58652.34;5081952;27;45647;-82
2021/09/05 04:51:15;;;;;;;;;16.25;16.00;;;;;-147.91;100.00;58652.34;5086043;27;45196;-82
2021/09/05 04:53:41;;;;;;;;;18.75;16.75;;;;;-147.91;100.00;58652.34;5082937;27;45491;-82
2021/09/05 04:56:06;;;;;;;;;18.00;16.00;;;;;-147.91;100.00;58652.34;5082958;27;46896;-82
2021/09/05 04:58:31;;;;;;;;;19.50;17.75;;;;;-147.91;100.00;58652.34;5088883;27;45518;-82
2021/09/05 05:00:57;;;;;;;;;15.75;15.75;;;;;-147.91;100.00;58652.34;5065240;27;48652;-82
2021/09/05 05:03:22;;;;;;;;;18.00;18.00;;;;;-147.91;100.00;58652.34;5084202;27;48822;-82
2021/09/05 05:05:48;;;;;;;;;18.25;16.50;;;;;-147.91;100.00;58652.34;5088357;27;45542;-82
2021/09/05 05:08:14;;;;;;;;;19.75;17.75;;;;;-147.91;100.00;58652.34;5083244;27;46517;-82
2021/09/05 05:10:39;;;;;;;;;16.50;16.25;;;;;-147.91;100.00;58652.34;5083084;27;45678;-82
2021/09/05 05:13:04;;;;;;;;;17.50;17.00;;;;;-147.91;100.00;58652.34;5078990;27;45506;-82
2021/09/05 05:15:30;;;;;;;;;18.25;16.00;;;;;-147.91;100.00;58652.34;5077765;27;45593;-82
2021/09/05 05:17:55;;;;;;;;;14.25;13.50;;;;;-147.91;100.00;58652.34;5082495;27;45701;-82
2021/09/05 05:20:20;;;;;;;;;16.00;15.75;;;;;-147.91;100.00;58652.34;5078582;27;45799;-81
2021/09/05 05:22:46;;;;;;;;;19.25;15.50;;;;;-147.91;100.00;58652.34;5077611;27;46373;-82
2021/09/05 05:25:12;;;;;;;;;18.25;16.75;;;;;-147.91;100.00;58652.34;5081962;27;45589;-82
2021/09/05 05:27:38;;;;;;;;;19.00;18.75;;;;;-147.91;100.00;58652.34;5076928;27;45593;-82
2021/09/05 05:30:04;;;;;;;;;21.00;17.00;;;;;-147.91;100.00;58652.34;5081457;27;45657;-82
2021/09/05 05:32:30;;;;;;;;;19.75;16.00;;;;;-147.91;100.00;58652.34;5076975;27;46399;-82
2021/09/05 05:34:55;;;;;;;;;19.00;19.00;;;;;-147.91;100.00;58652.34;5076415;27;46288;-82
2021/09/05 05:37:20;;;;;;;;;20.00;17.00;;;;;-147.91;100.00;58652.34;5081574;27;46819;-82
2021/09/05 05:39:46;;;;;;;;;15.50;14.25;;;;;-147.91;100.00;58652.34;5077308;27;46291;-82
2021/09/05 05:42:11;;;;;;;;;20.50;16.75;;;;;-147.91;100.00;58652.34;5085884;27;48101;-82
2021/09/05 05:44:37;;;;;;;;;18.00;16.25;;;;;-147.91;100.00;58652.34;5084825;27;45709;-82
2021/09/05 05:47:02;;;;;;;;;21.50;19.50;;;;;-147.91;100.00;58652.34;5063632;27;45934;-81
2021/09/05 05:49:28;;;;;;;;;23.75;19.75;;;;;-147.91;100.00;58652.34;5086487;27;45545;-82
2021/09/05 05:51:53;;;;;;;;;17.50;17.00;;;;;-147.91;100.00;58652.34;5063165;27;47231;-82
2021/09/05 05:54:19;;;;;;;;;22.00;18.00;;;;;-147.91;100.00;58652.34;5080658;27;56301;-82
2021/09/05 05:56:44;;;;;;;;;22.25;21.00;;;;;-147.91;100.00;58652.34;5085585;27;45658;-82
2021/09/05 05:59:10;;;;;;;;;20.00;18.00;;;;;-147.91;100.00;58652.34;5080985;27;45966;-82
2021/09/05 06:01:37;;;;;;;;;19.75;16.75;;;;;-147.91;100.00;58652.34;5084832;27;45591;-82
2021/09/05 06:04:03;;;;;;;;;16.00;15.00;;;;;-147.91;100.00;58652.34;5063470;27;46127;-81
2021/09/05 06:06:29;;;;;;;;;21.00;18.50;;;;;-147.91;100.00;58652.34;5083315;27;45628;-82
2021/09/05 06:08:55;;;;;;;;;21.50;17.50;;;;;-147.91;100.00;58652.34;5085614;27;45406;-81
2021/09/05 06:11:21;;;;;;;;;16.75;15.25;;;;;-147.91;100.00;58652.34;5083276;27;46509;-81
2021/09/05 06:13:46;;;;;;;;;16.00;16.00;;;;;-147.91;100.00;58652.34;5085539;27;45516;-80
2021/09/05 06:16:11;;;;;;;;;20.50;17.50;;;;;-147.91;100.00;58652.34;5085358;27;45563;-81
2021/09/05 06:18:37;;;;;;;;;18.75;15.25;;;;;-147.91;100.00;58652.34;5083166;27;45457;-81
2021/09/05 06:21:02;;;;;;;;;19.50;19.50;;;;;-147.91;100.00;58652.34;5085607;27;46287;-81
2021/09/05 06:23:28;;;;;;;;;18.75;17.00;;;;;-147.91;100.00;58652.34;5081116;27;45440;-80
2021/09/05 06:25:53;;;;;;;;;19.75;17.50;;;;;-147.91;100.00;58652.34;5063548;27;45569;-81
2021/09/05 06:28:19;;;;;;;;;21.75;18.50;;;;;-147.91;100.00;58652.34;5082116;27;46088;-81
2021/09/05 06:30:44;;;;;;;;;21.25;16.75;;;;;-147.91;100.00;58652.34;5082523;27;46031;-81
2021/09/05 06:33:10;;;;;;;;;18.25;16.25;;;;;-147.91;100.00;58652.34;5086012;27;45524;-81
2021/09/05 06:35:35;;;;;;;;;21.75;18.00;;;;;-147.91;100.00;58652.34;5080973;27;48561;-81
2021/09/05 06:38:01;;;;;;;;;21.50;18.50;;;;;-147.91;100.00;58652.34;5081591;27;46166;-81
2021/09/05 06:40:27;;;;;;;;;18.25;16.50;;;;;-147.91;100.00;58652.34;5084440;27;45650;-81
2021/09/05 06:42:52;;;;;;;;;16.00;14.25;;;;;-147.91;100.00;58652.34;5062158;27;45504;-81
2021/09/05 06:45:18;;;;;;;;;23.00;19.00;;;;;-147.91;100.00;58652.34;5066863;27;45965;-80
2021/09/05 06:47:43;;;;;;;;;15.00;15.00;;;;;-147.91;100.00;58652.34;5084706;27;45620;-81
2021/09/05 06:50:11;;;;;;;;;15.25;14.75;;;;;-147.91;100.00;58652.34;5081377;27;45998;-81
2021/09/05 06:52:37;;;;;;;;;18.50;18.25;;;;;-147.91;100.00;58652.34;5085180;27;45456;-80
2021/09/05 06:55:02;;;;;;;;;19.50;15.75;;;;;-147.91;100.00;58652.34;5082828;27;45497;-81
2021/09/05 06:57:28;;;;;;;;;16.25;16.25;;;;;-147.91;100.00;58652.34;5077575;27;47767;-81
2021/09/05 06:59:53;;;;;;;;;14.75;14.75;;;;;-147.91;100.00;58652.34;5084333;27;45686;-81
2021/09/05 07:02:20;;;;;;;;;21.25;17.50;;;;;-147.91;100.00;58652.34;5073235;27;45556;-81
2021/09/05 07:04:46;;;;;;;;;22.25;15.75;;;;;-147.91;100.00;58652.34;5077425;27;45535;-81
2021/09/05 07:07:11;;;;;;;;;16.50;15.50;;;;;-147.91;100.00;58652.34;5077364;27;45686;-81
2021/09/05 07:09:36;;;;;;;;;15.25;15.00;;;;;-147.91;100.00;58652.34;5074149;27;56166;-81
2021/09/05 07:12:02;;;;;;;;;13.75;13.75;;;;;-147.91;100.00;58652.34;5079852;27;46277;-81
2021/09/05 07:14:27;;;;;;;;;16.00;14.50;;;;;-147.91;100.00;58652.34;5075663;27;45524;-81
2021/09/05 07:16:53;;;;;;;;;13.75;12.25;;;;;-147.91;100.00;58652.34;5058018;27;45952;-80
2021/09/05 07:19:18;;;;;;;;;17.75;12.50;;;;;-147.91;100.00;58652.34;5079047;27;45526;-79
2021/09/05 07:21:43;;;;;;;;;11.00;10.50;;;;;-147.91;100.00;58652.34;5073580;27;45618;-80
2021/09/05 07:24:12;;;;;;;;;14.00;13.00;;;;;-147.91;100.00;58652.34;5078621;27;46331;-80
2021/09/05 07:26:38;;;;;;;;;15.75;13.50;;;;;-147.91;100.00;58652.34;5076007;27;45779;-80
2021/09/05 07:29:04;;;;;;;;;16.00;13.75;;;;;-147.91;100.00;58652.34;5075652;27;45615;-79
2021/09/05 07:31:30;;;;;;;;;13.25;12.50;;;;;-147.91;100.00;58652.34;5085666;27;45626;-80
2021/09/05 07:33:55;;;;;;;;;16.25;15.25;;;;;-147.91;100.00;58652.34;5082390;27;45832;-80
2021/09/05 07:36:21;;;;;;;;;18.50;15.00;;;;;-147.91;100.00;58652.34;5081921;27;45579;-80
2021/09/05 07:38:46;;;;;;;;;14.25;13.00;;;;;-147.91;100.00;58652.34;5082313;27;46032;-80
2021/09/05 07:41:13;;;;;;;;;14.50;14.50;;;;;-147.91;100.00;58652.34;5081080;27;45506;-80
2021/09/05 07:43:40;;;;;;;;;15.00;12.00;;;;;-147.91;100.00;58652.34;5084853;27;45503;-80
2021/09/05 07:46:05;;;;;;;;;18.75;14.25;;;;;-147.91;100.00;58652.34;5081301;27;45932;-80
2021/09/05 07:48:31;;;;;;;;;16.25;15.25;;;;;-147.91;100.00;58652.34;5060287;27;47372;-80
2021/09/05 07:50:56;;;;;;;;;17.50;15.25;;;;;-147.91;100.00;58652.34;5084842;27;45484;-79
2021/09/05 07:53:22;;;;;;;;;16.75;14.25;;;;;-147.91;100.00;58652.34;5080924;27;45512;-80
2021/09/05 07:55:47;;;;;;;;;19.25;16.50;;;;;-147.91;100.00;58652.34;5082708;27;48031;-80
2021/09/05 07:58:12;;;;;;;;;18.75;12.00;;;;;-147.91;100.00;58652.34;5079091;27;45542;-80
2021/09/05 08:00:40;;;;;;;;;16.00;13.00;;;;;-147.91;100.00;58652.34;5082493;27;45662;-80
2021/09/05 08:03:06;;;;;;;;;12.25;11.25;;;;;-147.91;100.00;58652.34;5081730;27;45499;-81
2021/09/05 08:05:31;;;;;;;;;11.25;11.00;;;;;-147.91;100.00;58652.34;5084799;27;45532;-80
2021/09/05 08:07:56;;;;;;;;;9.50;9.00;;;;;-147.91;100.00;58652.34;5082936;27;46346;-80
2021/09/05 08:10:22;;;;;;;;;11.75;10.00;;;;;-147.91;100.00;58652.34;5088617;27;45459;-79
2021/09/05 08:12:47;;;;;;;;;10.00;9.25;;;;;-147.91;100.00;58652.34;5064356;27;45836;-80
2021/09/05 08:15:13;;;;;;;;;10.50;10.00;;;;;-147.91;100.00;58652.34;5088595;27;45585;-80
2021/09/05 08:17:38;;;;;;;;;12.75;12.00;;;;;-147.91;100.00;58652.34;5083713;27;46321;-81
2021/09/05 08:20:05;;;;;;;;;12.00;10.00;;;;;-147.91;100.00;58652.34;5083197;27;45531;-81
2021/09/05 08:22:30;;;;;;;;;12.50;10.75;;;;;-147.91;100.00;58652.34;5086336;27;45571;-81
2021/09/05 08:24:55;;;;;;;;;11.00;9.75;;;;;-147.91;100.00;58652.34;5083337;27;45509;-81
2021/09/05 08:27:21;;;;;;;;;12.50;9.75;;;;;-147.91;100.00;58652.34;5084169;27;47413;-82
2021/09/05 08:29:47;;;;;;;;;11.00;10.00;;;;;-147.91;100.00;58652.34;5065554;27;45606;-81
2021/09/05 08:32:13;;;;;;;;;11.50;10.75;;;;;-147.91;100.00;58652.34;5082218;27;46333;-81
2021/09/05 08:34:38;;;;;;;;;13.25;11.50;;;;;-147.91;100.00;58652.34;5088214;27;45567;-81
2021/09/05 08:37:04;;;;;;;;;14.00;12.00;;;;;-147.91;100.00;58652.34;5083002;27;46999;-81
2021/09/05 08:39:30;;;;;;;;;14.00;12.50;;;;;-147.91;100.00;58652.34;5083223;27;45599;-81
2021/09/05 08:41:57;;;;;;;;;10.75;10.75;;;;;-147.91;100.00;58652.34;5088251;27;56129;-81
2021/09/05 08:44:23;;;;;;;;;12.50;10.75;;;;;-147.91;100.00;58652.34;5078954;27;45637;-81
2021/09/05 08:46:52;;;;;;;;;11.50;10.75;;;;;-147.91;100.00;58652.34;5085412;27;45562;-81
2021/09/05 08:49:19;;;;;;;;;12.50;12.50;;;;;-147.91;100.00;58652.34;5086011;27;45556;-81
2021/09/05 08:51:44;;;;;;;;;12.25;11.00;;;;;-147.91;100.00;58652.34;5083192;27;45500;-81
2021/09/05 08:54:10;;;;;;;;;12.00;11.25;;;;;-147.91;100.00;58652.34;5085921;27;45578;-81
2021/09/05 08:56:35;;;;;;;;;15.25;10.75;;;;;-147.91;100.00;58652.34;5082413;27;46509;-81
2021/09/05 08:59:01;;;;;;;;;13.00;12.25;;;;;-147.91;100.00;58652.34;5082087;27;45951;-82
2021/09/05 09:01:27;;;;;;;;;11.00;10.00;;;;;-147.91;100.00;58652.34;5065844;27;45616;-82
2021/09/05 09:04:05;;;;;;;;;11.75;10.25;;;;;-147.91;100.00;58652.34;5084697;27;46322;-81
2021/09/05 09:06:39;;;;;;;;;16.00;13.00;;;;;-147.91;100.00;58652.34;5083250;27;45843;-81
2021/09/05 09:09:06;;;;;;;;;12.50;12.50;;;;;-147.91;100.00;58652.34;5085425;27;45597;-80
2021/09/05 09:11:56;;;;;;;;;16.25;12.50;;;;;-147.91;100.00;58652.34;5082138;27;45558;-81
2021/09/05 09:14:39;;;;;;;;;9.25;9.25;;;;;-147.91;100.00;58652.34;5053055;27;45711;-81
2021/09/05 09:17:04;;;;;;;;;12.00;12.00;;;;;-147.91;100.00;58652.34;5082067;27;45620;-81
2021/09/05 09:19:30;;;;;;;;;9.50;9.00;;;;;-147.91;100.00;58652.34;5086220;27;45570;-81
2021/09/05 09:21:56;;;;;;;;;13.25;12.75;;;;;-147.91;100.00;58652.34;5082944;27;45585;-81
2021/09/05 09:24:22;;;;;;;;;11.75;11.00;;;;;-147.91;100.00;58652.34;5082947;27;46397;-81
2021/09/05 09:27:06;;;;;;;;;12.00;12.00;;;;;-147.91;100.00;58652.34;5061999;27;47883;-80
2021/09/05 09:29:35;;;;;;;;;11.00;11.00;;;;;-147.91;100.00;58652.34;5076519;27;45315;-81
2021/09/05 09:32:15;;;;;;;;;10.75;10.75;;;;;-147.91;100.00;58652.34;5077257;27;45542;-81
2021/09/05 09:34:46;;;;;;;;;12.00;12.00;;;;;-147.91;100.00;58652.34;5080072;27;45500;-81
2021/09/05 09:37:13;;;;;;;;;12.50;10.75;;;;;-147.91;100.00;58652.34;5078128;27;46508;-81
2021/09/05 09:39:51;;;;;;;;;9.75;9.00;;;;;-147.91;100.00;58652.34;5075737;27;45823;-81
2021/09/05 09:42:37;;;;;;;;;12.25;11.25;;;;;-147.91;100.00;58652.34;5079730;27;45794;-81
2021/09/05 09:45:14;;;;;;;;;10.50;10.00;;;;;-147.91;100.00;58652.34;5079465;27;45521;-79
2021/09/05 09:47:44;;;;;;;;;10.25;10.25;;;;;-147.91;100.00;58652.34;5079830;27;46152;-82
2021/09/05 09:50:11;;;;;;;;;9.75;9.75;;;;;-147.91;100.00;58652.34;5058875;27;45800;-82
2021/09/05 09:52:37;;;;;;;;;16.25;13.25;;;;;-147.91;100.00;58652.34;5080389;27;45679;-84
2021/09/05 09:55:03;;;;;;;;;13.50;11.25;;;;;-147.91;100.00;58652.34;5077240;27;45651;-81
2021/09/05 09:57:29;;;;;;;;;10.75;10.50;;;;;-147.91;100.00;58652.34;5081014;27;48191;-82
2021/09/05 09:59:54;;;;;;;;;11.00;11.00;;;;;-147.91;100.00;58652.34;5086891;27;45705;-82
2021/09/05 10:02:23;;;;;;;;;11.50;9.25;;;;;-147.91;100.00;58652.34;5055981;27;46028;-82
2021/09/05 10:04:51;;;;;;;;;9.25;9.00;;;;;-147.91;100.00;58652.34;5084519;27;45560;-82
2021/09/05 10:07:18;;;;;;;;;12.00;11.00;;;;;-147.91;100.00;58652.34;5083941;27;50029;-82
2021/09/05 10:09:46;;;;;;;;;13.50;11.00;;;;;-147.91;100.00;58652.34;5081328;27;45866;-82
2021/09/05 10:12:12;;;;;;;;;13.00;11.50;;;;;-147.91;100.00;58652.34;5065080;27;45501;-81
2021/09/05 10:14:39;;;;;;;;;11.50;10.50;;;;;-147.91;100.00;58652.34;5064020;27;45524;-82
2021/09/05 10:17:06;;;;;;;;;13.50;13.00;;;;;-147.91;100.00;58652.34;5062346;27;46062;-82
2021/09/05 10:19:37;;;;;;;;;12.50;11.25;;;;;-147.91;100.00;58652.34;5085599;27;45462;-81
2021/09/05 10:22:03;;;;;;;;;13.25;13.25;;;;;-147.91;100.00;58652.34;5081079;27;45545;-82
2021/09/05 10:24:47;;;;;;;;;14.75;14.75;;;;;-147.91;100.00;58652.34;5079860;27;45571;-82
2021/09/05 10:27:14;;;;;;;;;16.75;15.25;;;;;-147.91;100.00;58652.34;5079027;27;46302;-83
2021/09/05 10:30:05;;;;;;;;;16.50;13.50;;;;;-147.91;100.00;58652.34;5083159;27;48739;-82
2021/09/05 10:32:56;;;;;;;;;15.00;14.25;;;;;-147.91;100.00;58652.34;5081062;27;45669;-81
2021/09/05 10:35:44;;;;;;;;;14.25;13.00;;;;;-147.91;100.00;58652.34;5081514;27;45713;-81
2021/09/05 10:38:14;;;;;;;;;14.50;14.00;;;;;-147.91;100.00;58652.34;5081026;27;45548;-82
2021/09/05 10:40:42;;;;;;;;;13.50;13.00;;;;;-147.91;100.00;58652.34;5086124;27;45508;-82
2021/09/05 10:43:07;;;;;;;;;15.25;13.25;;;;;-147.91;100.00;58652.34;5063415;27;55362;-82
2021/09/05 10:45:38;;;;;;;;;13.50;12.50;;;;;-147.91;100.00;58652.34;5081343;27;45754;-82
2021/09/05 10:48:33;;;;;;;;;15.00;12.00;;;;;-147.91;100.00;58652.34;5085415;27;46351;-82
2021/09/05 10:51:09;;;;;;;;;14.75;12.00;;;;;-147.91;100.00;58652.34;5053710;27;45515;-82
2021/09/05 10:53:55;;;;;;;;;13.00;12.00;;;;;-147.91;100.00;58652.34;5058837;27;45576;-82
2021/09/05 10:56:24;;;;;;;;;17.00;12.75;;;;;-147.91;100.00;58652.34;5080701;27;45805;-82